createdAt,value
2018-12-14T00:02:01.413Z,91.20
2018-12-14T00:04:31.005Z,91.20
2018-12-14T00:07:00.612Z,91.20
2018-12-14T00:09:30.277Z,91.30
2018-12-14T00:11:59.909Z,91.20
2018-12-14T00:14:29.525Z,91.10
2018-12-14T00:17:00.043Z,91.20
2018-12-14T00:19:29.738Z,91.20
2018-12-14T00:21:59.389Z,91.20
2018-12-14T00:24:29.251Z,91.20
2018-12-14T00:27:00.098Z,91.20
2018-12-14T00:29:29.722Z,91.20
2018-12-14T00:31:59.324Z,91.20
2018-12-14T00:34:28.974Z,91.20
2018-12-14T00:36:58.567Z,91.30
2018-12-14T00:39:30.705Z,91.30
2018-12-14T00:42:01.214Z,91.30
2018-12-14T00:44:30.829Z,91.30
2018-12-14T00:47:00.511Z,91.30
2018-12-14T00:49:30.147Z,91.30
2018-12-14T00:52:02.337Z,91.30
2018-12-14T00:54:31.937Z,91.30
2018-12-14T00:57:01.602Z,91.30
2018-12-14T00:59:31.237Z,91.40
2018-12-14T01:02:04.236Z,91.40
2018-12-14T01:04:33.849Z,91.40
2018-12-14T01:07:03.489Z,91.40
2018-12-14T01:09:33.133Z,91.40
2018-12-14T01:12:02.832Z,91.40
2018-12-14T01:14:32.435Z,91.40
2018-12-14T01:17:02.054Z,91.40
2018-12-14T01:19:31.632Z,91.40
2018-12-14T01:22:01.320Z,91.50
2018-12-14T01:24:30.941Z,91.40
2018-12-14T01:27:00.551Z,91.40
2018-12-14T01:29:30.189Z,91.40
2018-12-14T01:31:59.781Z,91.70
2018-12-14T01:34:29.389Z,91.40
2018-12-14T01:36:58.986Z,91.30
2018-12-14T01:39:28.621Z,91.40
2018-12-14T01:42:04.666Z,91.50
2018-12-14T01:44:27.877Z,91.60
2018-12-14T01:46:58.825Z,91.80
2018-12-14T01:49:28.467Z,92.00
2018-12-14T01:51:59.167Z,92.20
2018-12-14T01:54:28.779Z,92.40
2018-12-14T01:56:59.397Z,92.50
2018-12-14T01:59:29.043Z,92.60
2018-12-14T02:01:58.626Z,92.70
2018-12-14T02:04:28.236Z,92.70
2018-12-14T02:06:57.891Z,92.70
2018-12-14T02:09:27.477Z,92.70
2018-12-14T02:11:57.925Z,92.70
2018-12-14T02:14:27.511Z,92.70
2018-12-14T02:16:57.121Z,92.80
2018-12-14T02:19:26.753Z,92.80
2018-12-14T02:21:56.356Z,92.80
2018-12-14T02:24:25.987Z,92.80
2018-12-14T02:26:55.598Z,92.90
2018-12-14T02:29:25.208Z,92.80
2018-12-14T02:31:54.840Z,92.80
2018-12-14T02:34:24.441Z,92.80
2018-12-14T02:36:54.868Z,92.80
2018-12-14T02:39:24.502Z,92.80
2018-12-14T02:41:54.118Z,92.80
2018-12-14T02:44:23.957Z,92.80
2018-12-14T02:46:53.562Z,92.80
2018-12-14T02:49:23.174Z,92.80
2018-12-14T02:51:52.776Z,92.80
2018-12-14T02:54:23.234Z,92.80
2018-12-14T02:56:52.940Z,92.80
2018-12-14T02:59:22.534Z,92.80
2018-12-14T03:01:53.342Z,92.90
2018-12-14T03:04:23.506Z,92.90
2018-12-14T03:06:53.251Z,93.00
2018-12-14T03:09:23.134Z,93.00
2018-12-14T03:11:52.793Z,93.00
2018-12-14T03:14:22.396Z,93.30
2018-12-14T03:16:52.057Z,93.10
2018-12-14T03:19:22.597Z,93.10
2018-12-14T03:21:52.246Z,93.10
2018-12-14T03:24:23.094Z,93.10
2018-12-14T03:26:52.711Z,93.00
2018-12-14T03:29:22.309Z,93.20
2018-12-14T03:31:51.910Z,93.20
2018-12-14T03:34:21.550Z,93.20
2018-12-14T03:36:51.142Z,93.20
2018-12-14T03:39:20.771Z,93.20
2018-12-14T03:41:50.359Z,93.20
2018-12-14T03:44:19.949Z,93.20
2018-12-14T03:46:49.607Z,93.20
2018-12-14T03:49:19.210Z,93.20
2018-12-14T03:51:48.820Z,93.30
2018-12-14T03:54:18.407Z,93.30
2018-12-14T03:56:48.057Z,93.30
2018-12-14T03:59:17.870Z,93.30
2018-12-14T04:01:47.511Z,93.30
2018-12-14T04:04:17.098Z,93.30
2018-12-14T04:06:46.712Z,93.30
2018-12-14T04:09:16.307Z,93.30
2018-12-14T04:11:46.014Z,93.30
2018-12-14T04:14:15.657Z,93.40
2018-12-14T04:16:45.269Z,93.40
2018-12-14T04:19:14.922Z,93.40
2018-12-14T04:21:44.523Z,93.40
2018-12-14T04:24:14.677Z,93.50
2018-12-14T04:26:44.281Z,93.50
2018-12-14T04:29:13.939Z,93.50
2018-12-14T04:31:43.604Z,93.50
2018-12-14T04:34:13.281Z,93.90
2018-12-14T04:36:43.041Z,93.80
2018-12-14T04:39:12.649Z,93.70
2018-12-14T04:41:42.240Z,93.70
2018-12-14T04:44:11.845Z,93.70
2018-12-14T04:46:41.494Z,94.00
2018-12-14T04:49:11.071Z,93.80
2018-12-14T04:51:40.729Z,93.90
2018-12-14T04:54:10.327Z,93.90
2018-12-14T04:56:39.934Z,93.90
2018-12-14T04:59:09.570Z,93.90
2018-12-14T05:01:39.160Z,93.80
2018-12-14T05:04:08.923Z,93.80
2018-12-14T05:06:38.582Z,93.80
2018-12-14T05:09:08.714Z,93.80
2018-12-14T05:11:39.380Z,93.80
2018-12-14T05:14:07.915Z,93.80
2018-12-14T05:16:38.815Z,93.80
2018-12-14T05:19:08.478Z,93.80
2018-12-14T05:21:39.195Z,93.70
2018-12-14T05:24:08.853Z,93.70
2018-12-14T05:26:38.528Z,93.70
2018-12-14T05:29:08.198Z,93.70
2018-12-14T05:31:37.825Z,93.70
2018-12-14T05:34:07.452Z,93.70
2018-12-14T05:36:37.073Z,93.70
2018-12-14T05:39:06.980Z,93.70
2018-12-14T05:41:36.680Z,93.70
2018-12-14T05:44:06.294Z,93.70
2018-12-14T05:46:37.163Z,93.70
2018-12-14T05:49:06.766Z,93.80
2018-12-14T05:51:37.024Z,93.80
2018-12-14T05:54:06.698Z,93.80
2018-12-14T05:56:36.309Z,93.70
2018-12-14T05:59:05.913Z,93.70
2018-12-14T06:01:35.521Z,93.70
2018-12-14T06:04:05.150Z,93.70
2018-12-14T06:06:34.930Z,93.70
2018-12-14T06:09:09.465Z,93.60
2018-12-14T06:11:39.059Z,93.70
2018-12-14T06:14:08.741Z,93.70
2018-12-14T06:16:38.388Z,93.80
2018-12-14T06:19:08.011Z,93.70
2018-12-14T06:21:37.609Z,93.70
2018-12-14T06:24:07.297Z,93.70
2018-12-14T06:26:36.901Z,93.70
2018-12-14T06:29:07.852Z,93.90
2018-12-14T06:31:37.465Z,93.70
2018-12-14T06:34:07.057Z,93.70
2018-12-14T06:36:37.925Z,93.70
2018-12-14T06:39:07.526Z,93.70
2018-12-14T06:41:37.130Z,93.70
2018-12-14T06:44:06.793Z,93.70
2018-12-14T06:46:36.393Z,93.70
2018-12-14T06:49:06.006Z,93.70
2018-12-14T06:51:35.723Z,93.70
2018-12-14T06:54:05.293Z,93.70
2018-12-14T06:56:34.941Z,93.70
2018-12-14T06:59:04.585Z,93.80
2018-12-14T07:01:34.193Z,93.80
2018-12-14T07:04:03.837Z,93.80
2018-12-14T07:06:33.443Z,93.80
2018-12-14T07:09:05.675Z,93.80
2018-12-14T07:11:35.339Z,93.80
2018-12-14T07:14:06.197Z,93.80
2018-12-14T07:16:35.802Z,93.80
2018-12-14T07:19:05.398Z,93.80
2018-12-14T07:21:35.071Z,93.80
2018-12-14T07:24:04.673Z,93.80
2018-12-14T07:26:34.280Z,93.80
2018-12-14T07:29:05.250Z,93.80
2018-12-14T07:31:34.870Z,93.80
2018-12-14T07:34:04.479Z,93.90
2018-12-14T07:36:34.097Z,93.90
2018-12-14T07:39:03.826Z,93.90
2018-12-14T07:41:33.452Z,94.00
2018-12-14T07:44:03.089Z,94.00
2018-12-14T07:46:32.733Z,94.00
2018-12-14T07:49:02.341Z,94.00
2018-12-14T07:51:31.948Z,94.00
2018-12-14T07:54:01.554Z,94.00
2018-12-14T07:56:31.182Z,94.00
2018-12-14T07:59:00.790Z,94.10
2018-12-14T08:01:31.277Z,94.00
2018-12-14T08:04:02.152Z,94.00
2018-12-14T08:06:31.750Z,94.00
2018-12-14T08:09:01.358Z,94.00
2018-12-14T08:11:32.266Z,94.00
2018-12-14T08:14:01.890Z,94.00
2018-12-14T08:16:31.525Z,94.00
2018-12-14T08:19:01.130Z,94.00
2018-12-14T08:21:30.768Z,94.00
2018-12-14T08:24:00.374Z,94.00
2018-12-14T08:26:30.080Z,94.00
2018-12-14T08:28:59.714Z,94.00
2018-12-14T08:31:30.593Z,94.00
2018-12-14T08:34:00.218Z,94.00
2018-12-14T08:36:29.850Z,93.90
2018-12-14T08:38:59.478Z,93.90
2018-12-14T08:41:29.089Z,93.90
2018-12-14T08:43:58.674Z,93.90
2018-12-14T08:46:28.440Z,93.90
2018-12-14T08:48:58.065Z,93.90
2018-12-14T08:51:27.717Z,93.90
2018-12-14T08:53:57.329Z,93.80
2018-12-14T08:56:28.407Z,93.80
2018-12-14T08:58:58.018Z,93.80
2018-12-14T09:01:27.789Z,93.80
2018-12-14T09:03:58.628Z,93.80
2018-12-14T09:06:29.544Z,93.80
2018-12-14T09:08:59.153Z,93.80
2018-12-14T09:11:28.738Z,93.70
2018-12-14T09:13:59.658Z,93.70
2018-12-14T09:16:29.279Z,93.70
2018-12-14T09:18:58.897Z,93.70
2018-12-14T09:21:29.817Z,93.70
2018-12-14T09:23:59.481Z,93.70
2018-12-14T09:26:29.165Z,93.70
2018-12-14T09:28:58.779Z,93.70
2018-12-14T09:31:28.413Z,93.70
2018-12-14T09:33:58.096Z,93.70
2018-12-14T09:36:27.717Z,93.70
2018-12-14T09:38:57.346Z,93.70
2018-12-14T09:41:28.204Z,93.70
2018-12-14T09:43:57.948Z,94.00
2018-12-14T09:46:27.572Z,93.70
2018-12-14T09:48:57.252Z,93.60
2018-12-14T09:51:26.869Z,93.70
2018-12-14T09:53:56.506Z,93.70
2018-12-14T09:56:26.157Z,93.70
2018-12-14T09:58:55.761Z,93.70
2018-12-14T10:01:25.386Z,93.60
2018-12-14T10:03:56.313Z,93.60
2018-12-14T10:06:25.917Z,93.60
2018-12-14T10:08:57.937Z,93.70
2018-12-14T10:11:27.598Z,93.60
2018-12-14T10:14:00.920Z,93.60
2018-12-14T10:16:28.093Z,93.70
2018-12-14T10:18:57.693Z,93.90
2018-12-14T10:21:27.361Z,93.60
2018-12-14T10:23:58.390Z,93.60
2018-12-14T10:26:28.152Z,93.60
2018-12-14T10:28:58.734Z,93.60
2018-12-14T10:31:27.431Z,93.60
2018-12-14T10:33:57.037Z,93.50
2018-12-14T10:36:26.617Z,93.50
2018-12-14T10:38:56.244Z,93.50
2018-12-14T10:41:25.857Z,93.40
2018-12-14T10:43:55.448Z,93.70
2018-12-14T10:46:25.138Z,93.40
2018-12-14T10:48:54.753Z,93.40
2018-12-14T10:51:24.433Z,93.60
2018-12-14T10:53:55.120Z,93.40
2018-12-14T10:56:24.733Z,93.40
2018-12-14T10:58:54.352Z,93.30
2018-12-14T11:01:30.705Z,92.90
2018-12-14T11:04:01.629Z,92.80
2018-12-14T11:06:31.289Z,92.60
2018-12-14T11:09:00.917Z,92.30
2018-12-14T11:11:30.505Z,92.10
2018-12-14T11:14:00.395Z,92.00
2018-12-14T11:16:29.975Z,91.90
2018-12-14T11:18:59.624Z,91.80
2018-12-14T11:21:29.234Z,91.90
2018-12-14T11:23:58.858Z,91.90
2018-12-14T11:26:28.499Z,91.90
2018-12-14T11:28:58.081Z,91.80
2018-12-14T11:31:27.688Z,91.80
2018-12-14T11:33:57.291Z,91.90
2018-12-14T11:36:26.876Z,91.90
2018-12-14T11:38:57.765Z,92.00
2018-12-14T11:41:27.420Z,92.10
2018-12-14T11:43:57.057Z,92.10
2018-12-14T11:46:26.697Z,92.10
2018-12-14T11:48:57.617Z,92.10
2018-12-14T11:51:28.756Z,92.00
2018-12-14T11:53:58.357Z,92.00
2018-12-14T11:56:27.987Z,92.10
2018-12-14T11:58:57.623Z,92.10
2018-12-14T12:01:27.239Z,92.10
2018-12-14T12:03:59.066Z,92.10
2018-12-14T12:06:28.672Z,92.10
2018-12-14T12:08:58.283Z,92.00
2018-12-14T12:11:27.922Z,92.00
2018-12-14T12:13:57.558Z,92.00
2018-12-14T12:16:27.284Z,92.00
2018-12-14T12:18:56.869Z,92.20
2018-12-14T12:21:26.458Z,91.90
2018-12-14T12:23:57.338Z,92.20
2018-12-14T12:26:26.932Z,91.90
2018-12-14T12:28:58.268Z,91.80
2018-12-14T12:31:29.133Z,91.80
2018-12-14T12:33:58.898Z,91.90
2018-12-14T12:36:28.501Z,91.70
2018-12-14T12:38:58.134Z,91.70
2018-12-14T12:41:27.741Z,91.60
2018-12-14T12:43:57.347Z,91.40
2018-12-14T12:46:26.998Z,91.50
2018-12-14T12:48:56.610Z,91.50
2018-12-14T12:51:29.828Z,91.50
2018-12-14T12:53:59.478Z,91.50
2018-12-14T12:56:29.075Z,91.60
2018-12-14T12:58:58.810Z,91.60
2018-12-14T13:01:29.734Z,91.60
2018-12-14T13:03:59.434Z,91.50
2018-12-14T13:06:30.316Z,91.50
2018-12-14T13:08:59.953Z,91.40
2018-12-14T13:11:29.584Z,91.40
2018-12-14T13:13:59.306Z,91.40
2018-12-14T13:16:28.970Z,91.10
2018-12-14T13:18:58.565Z,91.40
2018-12-14T13:21:28.193Z,91.40
2018-12-14T13:23:57.785Z,91.40
2018-12-14T13:26:27.416Z,91.50
2018-12-14T13:28:57.034Z,91.40
2018-12-14T13:31:26.658Z,91.40
2018-12-14T13:33:57.417Z,91.50
2018-12-14T13:36:28.325Z,91.40
2018-12-14T13:38:57.944Z,91.40
2018-12-14T13:41:28.242Z,91.40
2018-12-14T13:43:57.881Z,91.40
2018-12-14T13:46:27.512Z,91.40
2018-12-14T13:49:02.796Z,91.50
2018-12-14T13:51:27.998Z,91.50
2018-12-14T13:53:57.658Z,91.30
2018-12-14T13:56:27.320Z,91.20
2018-12-14T13:58:56.938Z,91.40
2018-12-14T14:01:27.543Z,91.50
2018-12-14T14:03:57.255Z,91.40
2018-12-14T14:06:30.581Z,91.20
2018-12-14T14:09:00.248Z,91.10
2018-12-14T14:11:29.926Z,91.10
2018-12-14T14:13:59.588Z,91.20
2018-12-14T14:16:31.835Z,91.20
2018-12-14T14:19:01.462Z,91.30
2018-12-14T14:21:31.117Z,91.30
2018-12-14T14:24:00.755Z,91.40
2018-12-14T14:26:30.748Z,91.40
2018-12-14T14:29:00.374Z,91.40
2018-12-14T14:31:31.513Z,91.40
2018-12-14T14:34:01.152Z,91.30
2018-12-14T14:36:31.886Z,91.20
2018-12-14T14:39:01.551Z,91.10
2018-12-14T14:41:31.174Z,91.40
2018-12-14T14:44:00.810Z,91.20
2018-12-14T14:46:31.763Z,91.20
2018-12-14T14:49:01.429Z,91.20
2018-12-14T14:51:31.068Z,91.20
2018-12-14T14:54:02.017Z,91.10
2018-12-14T14:56:32.158Z,91.00
2018-12-14T14:59:04.407Z,90.90
2018-12-14T15:01:34.005Z,90.90
2018-12-14T15:04:04.953Z,90.90
2018-12-14T15:06:34.542Z,90.90
2018-12-14T15:09:05.198Z,90.90
2018-12-14T15:11:34.857Z,90.90
2018-12-14T15:14:04.514Z,91.00
2018-12-14T15:16:34.161Z,91.00
2018-12-14T15:19:03.785Z,91.00
2018-12-14T15:21:33.421Z,91.00
2018-12-14T15:24:03.137Z,91.00
2018-12-14T15:26:32.766Z,91.00
2018-12-14T15:29:02.526Z,90.90
2018-12-14T15:31:32.153Z,90.90
2018-12-14T15:34:01.809Z,90.90
2018-12-14T15:36:31.543Z,90.90
2018-12-14T15:39:01.257Z,90.90
2018-12-14T15:41:30.903Z,90.90
2018-12-14T15:44:00.498Z,90.90
2018-12-14T15:46:31.407Z,91.00
2018-12-14T15:49:01.023Z,91.00
2018-12-14T15:51:30.623Z,91.00
2018-12-14T15:54:00.321Z,91.00
2018-12-14T15:56:29.930Z,90.90
2018-12-14T15:58:59.576Z,91.00
2018-12-14T16:01:29.250Z,91.00
2018-12-14T16:03:58.897Z,91.00
2018-12-14T16:06:28.503Z,91.00
2018-12-14T16:08:58.159Z,91.00
2018-12-14T16:11:27.803Z,91.00
2018-12-14T16:13:57.430Z,91.00
2018-12-14T16:16:27.074Z,91.00
2018-12-14T16:18:56.687Z,91.00
2018-12-14T16:21:26.567Z,90.90
2018-12-14T16:23:56.357Z,90.90
2018-12-14T16:26:25.981Z,90.90
2018-12-14T16:28:55.642Z,91.00
2018-12-14T16:31:25.354Z,91.00
2018-12-14T16:33:55.063Z,91.10
2018-12-14T16:36:24.697Z,91.10
2018-12-14T16:38:54.329Z,91.20
2018-12-14T16:41:25.154Z,91.20
2018-12-14T16:43:55.514Z,91.30
2018-12-14T16:46:25.121Z,91.20
2018-12-14T16:48:54.863Z,91.30
2018-12-14T16:51:24.477Z,91.30
2018-12-14T16:53:59.756Z,91.30
2018-12-14T16:56:29.354Z,91.30
2018-12-14T16:58:59.050Z,91.30
2018-12-14T17:01:28.731Z,91.20
2018-12-14T17:03:58.350Z,91.30
2018-12-14T17:06:27.961Z,91.20
2018-12-14T17:08:57.569Z,91.30
2018-12-14T17:11:28.466Z,91.40
2018-12-14T17:13:59.383Z,91.40
2018-12-14T17:16:28.978Z,91.40
2018-12-14T17:18:58.682Z,91.40
2018-12-14T17:21:28.386Z,91.60
2018-12-14T17:23:58.159Z,91.60
2018-12-14T17:26:27.827Z,91.70
2018-12-14T17:28:57.550Z,91.70
2018-12-14T17:31:27.521Z,91.80
2018-12-14T17:33:57.453Z,91.80
2018-12-14T17:36:27.136Z,91.90
2018-12-14T17:38:56.874Z,91.90
2018-12-14T17:41:26.526Z,92.20
2018-12-14T17:43:56.773Z,91.90
2018-12-14T17:46:27.923Z,91.90
2018-12-14T17:48:57.557Z,91.90
2018-12-14T17:51:27.189Z,91.80
2018-12-14T17:53:56.850Z,91.80
2018-12-14T17:56:26.526Z,91.80
2018-12-14T17:58:56.266Z,91.80
2018-12-14T18:01:25.953Z,91.80
2018-12-14T18:03:57.059Z,92.10
2018-12-14T18:06:27.761Z,91.80
2018-12-14T18:08:57.391Z,91.80
2018-12-14T18:11:28.323Z,91.80
2018-12-14T18:13:57.922Z,91.80
2018-12-14T18:16:29.128Z,91.80
2018-12-14T18:18:58.734Z,91.80
2018-12-14T18:21:28.399Z,91.80
2018-12-14T18:23:58.034Z,91.80
2018-12-14T18:26:27.661Z,91.80
2018-12-14T18:28:58.442Z,91.80
2018-12-14T18:31:29.127Z,91.80
2018-12-14T18:33:58.739Z,91.80
2018-12-14T18:36:28.353Z,91.80
2018-12-14T18:38:59.323Z,92.00
2018-12-14T18:41:28.946Z,91.80
2018-12-14T18:43:58.553Z,91.80
2018-12-14T18:46:29.472Z,91.80
2018-12-14T18:48:59.136Z,91.90
2018-12-14T18:51:28.761Z,91.90
2018-12-14T18:54:00.514Z,91.90
2018-12-14T18:56:31.482Z,91.90
2018-12-14T18:59:01.588Z,91.80
2018-12-14T19:01:31.183Z,91.80
2018-12-14T19:04:00.942Z,91.80
2018-12-14T19:06:31.857Z,91.80
2018-12-14T19:09:01.454Z,91.90
2018-12-14T19:11:32.390Z,91.90
2018-12-14T19:14:02.397Z,92.00
2018-12-14T19:16:32.050Z,92.00
2018-12-14T19:19:01.811Z,92.00
2018-12-14T19:21:31.886Z,91.90
2018-12-14T19:24:01.666Z,92.20
2018-12-14T19:26:31.457Z,91.90
2018-12-14T19:29:02.130Z,91.90
2018-12-14T19:31:31.973Z,92.20
2018-12-14T19:34:03.301Z,91.80
2018-12-14T19:36:32.934Z,92.00
2018-12-14T19:39:02.567Z,91.90
2018-12-14T19:41:32.202Z,91.90
2018-12-14T19:44:03.728Z,91.90
2018-12-14T19:46:35.797Z,91.90
2018-12-14T19:49:05.770Z,91.90
2018-12-14T19:51:35.560Z,91.80
2018-12-14T19:54:06.461Z,91.80
2018-12-14T19:56:36.075Z,91.80
2018-12-14T19:59:06.982Z,91.90
2018-12-14T20:01:36.613Z,91.90
2018-12-14T20:04:06.243Z,92.00
2018-12-14T20:06:35.927Z,92.00
2018-12-14T20:09:06.693Z,92.00
2018-12-14T20:11:37.842Z,92.00
2018-12-14T20:14:08.974Z,91.80
2018-12-14T20:16:37.389Z,91.80
2018-12-14T20:19:07.424Z,91.80
2018-12-14T20:21:37.086Z,91.80
2018-12-14T20:24:06.758Z,91.80
2018-12-14T20:26:38.941Z,91.80
2018-12-14T20:29:08.595Z,91.70
2018-12-14T20:31:38.356Z,91.40
2018-12-14T20:34:08.056Z,91.20
2018-12-14T20:36:37.831Z,91.20
2018-12-14T20:39:08.490Z,91.20
2018-12-14T20:41:38.708Z,91.30
2018-12-14T20:44:09.790Z,91.40
2018-12-14T20:46:39.770Z,91.60
2018-12-14T20:49:09.450Z,91.60
2018-12-14T20:51:40.443Z,91.70
2018-12-14T20:54:11.411Z,91.80
2018-12-14T20:56:41.168Z,91.80
2018-12-14T20:59:10.880Z,91.90
2018-12-14T21:01:42.147Z,91.90
2018-12-14T21:04:15.114Z,91.90
2018-12-14T21:06:46.001Z,92.00
2018-12-14T21:09:17.350Z,92.00
2018-12-14T21:11:48.261Z,92.00
2018-12-14T21:14:18.045Z,92.00
2018-12-14T21:16:48.651Z,92.00
2018-12-14T21:19:18.408Z,92.00
2018-12-14T21:21:48.791Z,92.00
2018-12-14T21:24:20.782Z,92.00
2018-12-14T21:26:52.058Z,92.00
2018-12-14T21:29:21.709Z,92.00
2018-12-14T21:31:51.374Z,92.00
2018-12-14T21:34:21.358Z,92.00
2018-12-14T21:36:51.299Z,92.00
2018-12-14T21:39:20.957Z,92.10
2018-12-14T21:41:50.618Z,92.10
2018-12-14T21:44:21.839Z,92.10
2018-12-14T21:46:52.885Z,92.10
2018-12-14T21:49:22.520Z,92.00
2018-12-14T21:51:52.481Z,92.10
2018-12-14T21:54:22.618Z,92.10
2018-12-14T21:56:56.981Z,92.10
2018-12-14T21:59:30.134Z,92.10
2018-12-14T22:02:00.076Z,92.10
2018-12-14T22:04:31.169Z,92.10
2018-12-14T22:07:00.493Z,92.10
2018-12-14T22:09:31.739Z,92.10
2018-12-14T22:12:01.993Z,92.10
2018-12-14T22:14:31.878Z,92.10
2018-12-14T22:17:01.543Z,92.10
2018-12-14T22:19:31.347Z,92.10
2018-12-14T22:22:00.985Z,92.10
2018-12-14T22:24:30.664Z,92.10
2018-12-14T22:27:00.378Z,92.00
2018-12-14T22:29:30.038Z,92.00
2018-12-14T22:31:59.680Z,92.00
2018-12-14T22:34:29.358Z,92.00
2018-12-14T22:36:58.989Z,92.00
2018-12-14T22:39:28.618Z,92.00
2018-12-14T22:41:58.385Z,91.90
2018-12-14T22:44:29.651Z,91.90
2018-12-14T22:46:59.305Z,91.90
2018-12-14T22:49:29.275Z,91.90
2018-12-14T22:51:58.913Z,91.90
2018-12-14T22:54:28.518Z,91.90
2018-12-14T22:56:58.186Z,91.90
2018-12-14T22:59:27.845Z,91.80
2018-12-14T23:01:57.441Z,91.80
2018-12-14T23:04:27.057Z,91.80
2018-12-14T23:06:57.925Z,91.70
2018-12-14T23:09:27.525Z,91.90
2018-12-14T23:11:58.473Z,91.70
2018-12-14T23:14:28.151Z,91.70
2018-12-14T23:16:57.749Z,91.70
2018-12-14T23:19:27.339Z,91.70
2018-12-14T23:21:57.019Z,91.70
2018-12-14T23:24:26.630Z,91.70
2018-12-14T23:26:56.392Z,91.80
2018-12-14T23:29:26.045Z,91.80
2018-12-14T23:31:55.654Z,91.80
2018-12-14T23:34:26.445Z,91.80
2018-12-14T23:36:56.048Z,91.80
2018-12-14T23:39:25.682Z,92.00
2018-12-14T23:41:55.365Z,91.90
2018-12-14T23:44:24.964Z,91.90
2018-12-14T23:46:58.773Z,92.20
2018-12-14T23:49:27.823Z,91.90
2018-12-14T23:51:58.665Z,91.90
2018-12-14T23:54:29.497Z,91.90
2018-12-14T23:56:59.157Z,91.90
2018-12-14T23:59:28.758Z,91.90
